sensor_id;sensor_type;location;lat;lon;timestamp;P1;durP1;ratioP1;P2;durP2;ratioP2
46717;SDS011;32448;44.960;-0.698;2022-07-23T00:02:53;5.45;;;2.60;;
46717;SDS011;32448;44.960;-0.698;2022-07-23T00:05:20;6.72;;;2.78;;
46717;SDS011;32448;44.960;-0.698;2022-07-23T00:07:46;5.80;;;3.08;;
46717;SDS011;32448;44.960;-0.698;2022-07-23T00:10:12;5.10;;;2.92;;
46717;SDS011;32448;44.960;-0.698;2022-07-23T00:12:39;5.75;;;2.70;;
46717;SDS011;32448;44.960;-0.698;2022-07-23T00:15:11;7.90;;;2.80;;
46717;SDS011;32448;44.960;-0.698;2022-07-23T00:17:40;8.02;;;3.08;;
46717;SDS011;32448;44.960;-0.698;2022-07-23T00:20:11;9.88;;;2.90;;
46717;SDS011;32448;44.960;-0.698;2022-07-23T00:22:54;8.13;;;3.30;;
46717;SDS011;32448;44.960;-0.698;2022-07-23T00:25:32;8.93;;;2.85;;
46717;SDS011;32448;44.960;-0.698;2022-07-23T00:28:10;7.32;;;2.75;;
46717;SDS011;32448;44.960;-0.698;2022-07-23T00:30:37;3.88;;;2.58;;
46717;SDS011;32448;44.960;-0.698;2022-07-23T00:33:05;6.90;;;2.88;;
46717;SDS011;32448;44.960;-0.698;2022-07-23T00:35:41;8.68;;;3.15;;
46717;SDS011;32448;44.960;-0.698;2022-07-23T00:38:19;6.00;;;2.88;;
46717;SDS011;32448;44.960;-0.698;2022-07-23T00:51:22;6.78;;;3.38;;
46717;SDS011;32448;44.960;-0.698;2022-07-23T00:53:49;8.38;;;2.95;;
46717;SDS011;32448;44.960;-0.698;2022-07-23T01:02:23;9.15;;;3.20;;
46717;SDS011;32448;44.960;-0.698;2022-07-23T01:04:56;5.43;;;2.95;;
46717;SDS011;32448;44.960;-0.698;2022-07-23T01:07:22;6.22;;;2.90;;
46717;SDS011;32448;44.960;-0.698;2022-07-23T01:09:48;8.10;;;3.42;;
46717;SDS011;32448;44.960;-0.698;2022-07-23T01:12:16;5.30;;;2.90;;
46717;SDS011;32448;44.960;-0.698;2022-07-23T01:14:42;6.53;;;3.10;;
46717;SDS011;32448;44.960;-0.698;2022-07-23T01:17:08;7.10;;;3.10;;
46717;SDS011;32448;44.960;-0.698;2022-07-23T01:19:34;6.70;;;3.17;;
46717;SDS011;32448;44.960;-0.698;2022-07-23T01:22:01;7.53;;;3.28;;
46717;SDS011;32448;44.960;-0.698;2022-07-23T01:24:29;6.78;;;3.20;;
46717;SDS011;32448;44.960;-0.698;2022-07-23T01:26:56;6.32;;;2.55;;
46717;SDS011;32448;44.960;-0.698;2022-07-23T01:29:22;6.72;;;3.03;;
46717;SDS011;32448;44.960;-0.698;2022-07-23T01:31:48;6.95;;;3.10;;
46717;SDS011;32448;44.960;-0.698;2022-07-23T01:34:14;6.50;;;3.00;;
46717;SDS011;32448;44.960;-0.698;2022-07-23T01:36:40;6.75;;;3.13;;
46717;SDS011;32448;44.960;-0.698;2022-07-23T01:39:06;9.85;;;3.78;;
46717;SDS011;32448;44.960;-0.698;2022-07-23T01:41:35;6.25;;;3.15;;
46717;SDS011;32448;44.960;-0.698;2022-07-23T01:44:00;7.60;;;3.28;;
46717;SDS011;32448;44.960;-0.698;2022-07-23T01:46:26;6.45;;;2.83;;
46717;SDS011;32448;44.960;-0.698;2022-07-23T01:48:52;6.70;;;3.50;;
46717;SDS011;32448;44.960;-0.698;2022-07-23T01:51:18;8.20;;;3.17;;
46717;SDS011;32448;44.960;-0.698;2022-07-23T01:53:43;7.22;;;3.83;;
46717;SDS011;32448;44.960;-0.698;2022-07-23T01:56:27;5.50;;;3.53;;
46717;SDS011;32448;44.960;-0.698;2022-07-23T02:05:26;6.05;;;3.13;;
46717;SDS011;32448;44.960;-0.698;2022-07-23T02:07:54;5.43;;;3.05;;
46717;SDS011;32448;44.960;-0.698;2022-07-23T02:10:21;6.20;;;3.17;;
46717;SDS011;32448;44.960;-0.698;2022-07-23T02:12:46;5.25;;;3.00;;
46717;SDS011;32448;44.960;-0.698;2022-07-23T02:15:12;7.40;;;2.88;;
46717;SDS011;32448;44.960;-0.698;2022-07-23T02:17:38;7.07;;;3.10;;
46717;SDS011;32448;44.960;-0.698;2022-07-23T02:20:05;6.53;;;3.30;;
46717;SDS011;32448;44.960;-0.698;2022-07-23T02:22:31;6.32;;;2.83;;
46717;SDS011;32448;44.960;-0.698;2022-07-23T02:24:58;8.07;;;3.42;;
46717;SDS011;32448;44.960;-0.698;2022-07-23T02:27:24;7.45;;;2.88;;
46717;SDS011;32448;44.960;-0.698;2022-07-23T02:29:50;8.10;;;3.20;;
46717;SDS011;32448;44.960;-0.698;2022-07-23T02:32:16;4.70;;;3.30;;
46717;SDS011;32448;44.960;-0.698;2022-07-23T02:34:42;5.78;;;3.35;;
46717;SDS011;32448;44.960;-0.698;2022-07-23T02:37:08;5.20;;;3.22;;
46717;SDS011;32448;44.960;-0.698;2022-07-23T02:39:35;5.72;;;3.33;;
46717;SDS011;32448;44.960;-0.698;2022-07-23T02:42:01;9.57;;;3.78;;
46717;SDS011;32448;44.960;-0.698;2022-07-23T02:44:27;5.20;;;3.25;;
46717;SDS011;32448;44.960;-0.698;2022-07-23T02:46:52;5.80;;;3.08;;
46717;SDS011;32448;44.960;-0.698;2022-07-23T02:49:18;5.70;;;3.03;;
46717;SDS011;32448;44.960;-0.698;2022-07-23T02:51:43;6.82;;;3.25;;
46717;SDS011;32448;44.960;-0.698;2022-07-23T02:54:09;5.43;;;3.20;;
46717;SDS011;32448;44.960;-0.698;2022-07-23T02:56:35;6.10;;;3.15;;
46717;SDS011;32448;44.960;-0.698;2022-07-23T02:59:00;7.63;;;3.42;;
46717;SDS011;32448;44.960;-0.698;2022-07-23T03:01:26;6.38;;;2.97;;
46717;SDS011;32448;44.960;-0.698;2022-07-23T03:03:51;5.75;;;2.97;;
46717;SDS011;32448;44.960;-0.698;2022-07-23T03:06:17;5.30;;;2.97;;
46717;SDS011;32448;44.960;-0.698;2022-07-23T03:08:43;8.27;;;3.50;;
46717;SDS011;32448;44.960;-0.698;2022-07-23T03:11:08;4.45;;;3.22;;
46717;SDS011;32448;44.960;-0.698;2022-07-23T03:13:41;7.88;;;3.40;;
46717;SDS011;32448;44.960;-0.698;2022-07-23T03:16:07;9.52;;;3.60;;
46717;SDS011;32448;44.960;-0.698;2022-07-23T03:18:33;6.40;;;3.15;;
46717;SDS011;32448;44.960;-0.698;2022-07-23T03:20:58;5.05;;;3.20;;
46717;SDS011;32448;44.960;-0.698;2022-07-23T03:23:25;6.68;;;3.30;;
46717;SDS011;32448;44.960;-0.698;2022-07-23T03:25:51;8.40;;;3.70;;
46717;SDS011;32448;44.960;-0.698;2022-07-23T03:28:19;6.57;;;3.45;;
46717;SDS011;32448;44.960;-0.698;2022-07-23T03:30:45;8.45;;;3.60;;
46717;SDS011;32448;44.960;-0.698;2022-07-23T03:33:14;5.53;;;3.20;;
46717;SDS011;32448;44.960;-0.698;2022-07-23T03:35:42;5.95;;;3.33;;
46717;SDS011;32448;44.960;-0.698;2022-07-23T03:38:13;7.32;;;3.47;;
46717;SDS011;32448;44.960;-0.698;2022-07-23T03:40:39;7.85;;;3.15;;
46717;SDS011;32448;44.960;-0.698;2022-07-23T03:43:05;6.05;;;3.35;;
46717;SDS011;32448;44.960;-0.698;2022-07-23T03:45:30;5.57;;;2.90;;
46717;SDS011;32448;44.960;-0.698;2022-07-23T03:47:56;7.55;;;3.60;;
46717;SDS011;32448;44.960;-0.698;2022-07-23T03:50:22;5.47;;;3.03;;
46717;SDS011;32448;44.960;-0.698;2022-07-23T03:52:48;5.80;;;3.72;;
46717;SDS011;32448;44.960;-0.698;2022-07-23T03:55:14;3.92;;;3.08;;
46717;SDS011;32448;44.960;-0.698;2022-07-23T03:57:41;5.85;;;3.10;;
46717;SDS011;32448;44.960;-0.698;2022-07-23T04:00:07;6.90;;;3.13;;
46717;SDS011;32448;44.960;-0.698;2022-07-23T04:02:36;6.43;;;3.10;;
46717;SDS011;32448;44.960;-0.698;2022-07-23T04:05:02;7.38;;;3.83;;
46717;SDS011;32448;44.960;-0.698;2022-07-23T04:07:29;5.07;;;2.95;;
46717;SDS011;32448;44.960;-0.698;2022-07-23T04:09:55;7.43;;;3.10;;
46717;SDS011;32448;44.960;-0.698;2022-07-23T04:12:21;6.38;;;3.25;;
46717;SDS011;32448;44.960;-0.698;2022-07-23T04:14:47;3.85;;;3.00;;
46717;SDS011;32448;44.960;-0.698;2022-07-23T04:17:12;10.15;;;3.13;;
46717;SDS011;32448;44.960;-0.698;2022-07-23T04:19:38;5.50;;;3.15;;
46717;SDS011;32448;44.960;-0.698;2022-07-23T04:22:08;9.30;;;2.95;;
46717;SDS011;32448;44.960;-0.698;2022-07-23T04:24:35;7.03;;;3.58;;
46717;SDS011;32448;44.960;-0.698;2022-07-23T04:27:01;4.50;;;3.20;;
46717;SDS011;32448;44.960;-0.698;2022-07-23T04:29:27;5.22;;;3.28;;
46717;SDS011;32448;44.960;-0.698;2022-07-23T04:31:53;5.45;;;3.33;;
46717;SDS011;32448;44.960;-0.698;2022-07-23T04:34:18;5.55;;;3.20;;
46717;SDS011;32448;44.960;-0.698;2022-07-23T04:36:44;5.88;;;3.03;;
46717;SDS011;32448;44.960;-0.698;2022-07-23T04:39:10;6.60;;;3.65;;
46717;SDS011;32448;44.960;-0.698;2022-07-23T04:41:35;8.40;;;3.10;;
46717;SDS011;32448;44.960;-0.698;2022-07-23T04:44:01;7.70;;;3.50;;
46717;SDS011;32448;44.960;-0.698;2022-07-23T04:46:28;7.30;;;3.30;;
46717;SDS011;32448;44.960;-0.698;2022-07-23T04:48:54;5.15;;;3.25;;
46717;SDS011;32448;44.960;-0.698;2022-07-23T04:51:19;5.82;;;3.20;;
46717;SDS011;32448;44.960;-0.698;2022-07-23T04:53:45;5.05;;;3.30;;
46717;SDS011;32448;44.960;-0.698;2022-07-23T04:56:11;7.38;;;3.30;;
46717;SDS011;32448;44.960;-0.698;2022-07-23T04:58:39;6.57;;;3.50;;
46717;SDS011;32448;44.960;-0.698;2022-07-23T05:01:05;8.10;;;3.25;;
46717;SDS011;32448;44.960;-0.698;2022-07-23T05:03:30;8.45;;;3.30;;
46717;SDS011;32448;44.960;-0.698;2022-07-23T05:05:59;4.53;;;2.85;;
46717;SDS011;32448;44.960;-0.698;2022-07-23T05:08:25;6.20;;;3.38;;
46717;SDS011;32448;44.960;-0.698;2022-07-23T05:10:52;5.90;;;3.28;;
46717;SDS011;32448;44.960;-0.698;2022-07-23T05:13:18;5.43;;;3.30;;
46717;SDS011;32448;44.960;-0.698;2022-07-23T05:15:45;6.85;;;3.42;;
46717;SDS011;32448;44.960;-0.698;2022-07-23T05:18:11;6.05;;;3.38;;
46717;SDS011;32448;44.960;-0.698;2022-07-23T05:20:39;5.75;;;3.38;;
46717;SDS011;32448;44.960;-0.698;2022-07-23T05:23:04;6.88;;;3.17;;
46717;SDS011;32448;44.960;-0.698;2022-07-23T05:25:31;5.28;;;3.03;;
46717;SDS011;32448;44.960;-0.698;2022-07-23T05:27:56;4.53;;;3.03;;
46717;SDS011;32448;44.960;-0.698;2022-07-23T05:30:22;7.22;;;3.67;;
46717;SDS011;32448;44.960;-0.698;2022-07-23T05:32:48;6.72;;;3.58;;
46717;SDS011;32448;44.960;-0.698;2022-07-23T05:35:14;7.20;;;3.42;;
46717;SDS011;32448;44.960;-0.698;2022-07-23T05:37:40;5.82;;;3.78;;
46717;SDS011;32448;44.960;-0.698;2022-07-23T05:40:07;7.75;;;3.88;;
46717;SDS011;32448;44.960;-0.698;2022-07-23T05:42:38;5.35;;;3.17;;
46717;SDS011;32448;44.960;-0.698;2022-07-23T05:45:08;5.80;;;3.30;;
46717;SDS011;32448;44.960;-0.698;2022-07-23T05:47:44;6.05;;;3.17;;
46717;SDS011;32448;44.960;-0.698;2022-07-23T05:50:12;5.85;;;3.53;;
46717;SDS011;32448;44.960;-0.698;2022-07-23T05:52:38;5.90;;;3.78;;
46717;SDS011;32448;44.960;-0.698;2022-07-23T05:55:05;6.13;;;3.33;;
46717;SDS011;32448;44.960;-0.698;2022-07-23T05:57:32;7.30;;;3.55;;
46717;SDS011;32448;44.960;-0.698;2022-07-23T05:59:57;7.30;;;3.83;;
46717;SDS011;32448;44.960;-0.698;2022-07-23T06:02:23;9.88;;;4.05;;
46717;SDS011;32448;44.960;-0.698;2022-07-23T06:04:49;5.30;;;3.25;;
46717;SDS011;32448;44.960;-0.698;2022-07-23T06:07:14;7.18;;;3.80;;
46717;SDS011;32448;44.960;-0.698;2022-07-23T06:09:40;5.00;;;3.17;;
46717;SDS011;32448;44.960;-0.698;2022-07-23T06:12:08;6.60;;;3.30;;
46717;SDS011;32448;44.960;-0.698;2022-07-23T06:14:33;6.68;;;3.40;;
46717;SDS011;32448;44.960;-0.698;2022-07-23T06:16:59;5.05;;;2.88;;
46717;SDS011;32448;44.960;-0.698;2022-07-23T06:19:31;5.45;;;3.33;;
46717;SDS011;32448;44.960;-0.698;2022-07-23T06:21:56;9.65;;;3.78;;
46717;SDS011;32448;44.960;-0.698;2022-07-23T06:24:22;6.80;;;3.22;;
46717;SDS011;32448;44.960;-0.698;2022-07-23T06:26:48;4.72;;;2.90;;
46717;SDS011;32448;44.960;-0.698;2022-07-23T06:29:13;5.68;;;3.15;;
46717;SDS011;32448;44.960;-0.698;2022-07-23T06:31:41;5.22;;;2.80;;
46717;SDS011;32448;44.960;-0.698;2022-07-23T06:34:07;6.22;;;3.55;;
46717;SDS011;32448;44.960;-0.698;2022-07-23T06:36:35;4.75;;;2.97;;
46717;SDS011;32448;44.960;-0.698;2022-07-23T06:39:01;7.40;;;3.13;;
46717;SDS011;32448;44.960;-0.698;2022-07-23T06:41:27;8.32;;;3.88;;
46717;SDS011;32448;44.960;-0.698;2022-07-23T06:43:53;9.80;;;4.25;;
46717;SDS011;32448;44.960;-0.698;2022-07-23T06:46:18;5.55;;;3.50;;
46717;SDS011;32448;44.960;-0.698;2022-07-23T06:48:46;6.85;;;3.53;;
46717;SDS011;32448;44.960;-0.698;2022-07-23T06:51:11;5.38;;;3.50;;
46717;SDS011;32448;44.960;-0.698;2022-07-23T06:53:37;6.63;;;3.92;;
46717;SDS011;32448;44.960;-0.698;2022-07-23T06:56:03;8.43;;;4.05;;
46717;SDS011;32448;44.960;-0.698;2022-07-23T06:58:28;9.60;;;3.95;;
46717;SDS011;32448;44.960;-0.698;2022-07-23T07:00:54;5.43;;;3.55;;
46717;SDS011;32448;44.960;-0.698;2022-07-23T07:03:22;6.65;;;3.42;;
46717;SDS011;32448;44.960;-0.698;2022-07-23T07:05:47;5.72;;;3.53;;
46717;SDS011;32448;44.960;-0.698;2022-07-23T07:08:13;5.65;;;3.30;;
46717;SDS011;32448;44.960;-0.698;2022-07-23T07:10:38;8.10;;;3.40;;
46717;SDS011;32448;44.960;-0.698;2022-07-23T07:13:04;7.10;;;3.45;;
46717;SDS011;32448;44.960;-0.698;2022-07-23T07:15:30;6.05;;;3.65;;
46717;SDS011;32448;44.960;-0.698;2022-07-23T07:17:55;8.10;;;3.53;;
46717;SDS011;32448;44.960;-0.698;2022-07-23T07:20:21;8.60;;;3.72;;
46717;SDS011;32448;44.960;-0.698;2022-07-23T07:22:46;6.13;;;3.60;;
46717;SDS011;32448;44.960;-0.698;2022-07-23T07:25:12;7.80;;;3.40;;
46717;SDS011;32448;44.960;-0.698;2022-07-23T07:27:37;12.50;;;4.75;;
46717;SDS011;32448;44.960;-0.698;2022-07-23T07:30:04;7.65;;;4.18;;
46717;SDS011;32448;44.960;-0.698;2022-07-23T07:32:31;7.93;;;3.65;;
46717;SDS011;32448;44.960;-0.698;2022-07-23T07:35:02;11.38;;;3.90;;
46717;SDS011;32448;44.960;-0.698;2022-07-23T07:37:29;18.25;;;4.28;;
46717;SDS011;32448;44.960;-0.698;2022-07-23T07:39:55;18.13;;;3.88;;
46717;SDS011;32448;44.960;-0.698;2022-07-23T07:42:21;11.70;;;3.28;;
46717;SDS011;32448;44.960;-0.698;2022-07-23T07:44:46;14.32;;;3.60;;
46717;SDS011;32448;44.960;-0.698;2022-07-23T07:47:12;13.00;;;4.35;;
46717;SDS011;32448;44.960;-0.698;2022-07-23T07:49:40;13.23;;;3.50;;
46717;SDS011;32448;44.960;-0.698;2022-07-23T07:52:06;11.52;;;2.97;;
46717;SDS011;32448;44.960;-0.698;2022-07-23T07:54:32;17.30;;;3.63;;
46717;SDS011;32448;44.960;-0.698;2022-07-23T07:56:58;12.32;;;3.00;;
46717;SDS011;32448;44.960;-0.698;2022-07-23T07:59:24;11.68;;;2.92;;
46717;SDS011;32448;44.960;-0.698;2022-07-23T08:01:50;12.02;;;2.85;;
46717;SDS011;32448;44.960;-0.698;2022-07-23T08:04:16;16.45;;;3.50;;
46717;SDS011;32448;44.960;-0.698;2022-07-23T08:06:42;11.75;;;2.80;;
46717;SDS011;32448;44.960;-0.698;2022-07-23T08:09:08;7.55;;;2.92;;
46717;SDS011;32448;44.960;-0.698;2022-07-23T08:11:33;14.57;;;2.72;;
46717;SDS011;32448;44.960;-0.698;2022-07-23T08:13:59;11.70;;;2.95;;
46717;SDS011;32448;44.960;-0.698;2022-07-23T08:16:25;7.10;;;2.58;;
46717;SDS011;32448;44.960;-0.698;2022-07-23T08:18:50;10.13;;;2.67;;
46717;SDS011;32448;44.960;-0.698;2022-07-23T08:21:16;13.77;;;2.80;;
46717;SDS011;32448;44.960;-0.698;2022-07-23T08:23:41;11.38;;;3.00;;
46717;SDS011;32448;44.960;-0.698;2022-07-23T08:26:07;12.63;;;3.45;;
46717;SDS011;32448;44.960;-0.698;2022-07-23T08:28:33;12.05;;;2.70;;
46717;SDS011;32448;44.960;-0.698;2022-07-23T08:30:59;11.13;;;2.85;;
46717;SDS011;32448;44.960;-0.698;2022-07-23T08:33:25;12.73;;;3.08;;
46717;SDS011;32448;44.960;-0.698;2022-07-23T08:35:51;10.38;;;2.47;;
46717;SDS011;32448;44.960;-0.698;2022-07-23T08:38:20;13.73;;;2.72;;
46717;SDS011;32448;44.960;-0.698;2022-07-23T08:40:50;13.05;;;3.20;;
46717;SDS011;32448;44.960;-0.698;2022-07-23T08:43:19;8.15;;;3.08;;
46717;SDS011;32448;44.960;-0.698;2022-07-23T08:45:48;9.18;;;2.92;;
46717;SDS011;32448;44.960;-0.698;2022-07-23T08:48:17;11.07;;;3.05;;
46717;SDS011;32448;44.960;-0.698;2022-07-23T08:50:45;10.18;;;2.53;;
46717;SDS011;32448;44.960;-0.698;2022-07-23T08:53:13;8.15;;;2.85;;
46717;SDS011;32448;44.960;-0.698;2022-07-23T08:55:40;7.80;;;2.35;;
46717;SDS011;32448;44.960;-0.698;2022-07-23T08:58:09;9.02;;;2.70;;
46717;SDS011;32448;44.960;-0.698;2022-07-23T09:00:35;7.78;;;2.63;;
46717;SDS011;32448;44.960;-0.698;2022-07-23T09:03:00;9.10;;;2.50;;
46717;SDS011;32448;44.960;-0.698;2022-07-23T09:05:26;7.93;;;2.28;;
46717;SDS011;32448;44.960;-0.698;2022-07-23T09:13:24;9.20;;;2.58;;
46717;SDS011;32448;44.960;-0.698;2022-07-23T09:15:54;9.13;;;2.60;;
46717;SDS011;32448;44.960;-0.698;2022-07-23T09:18:31;11.68;;;2.60;;
46717;SDS011;32448;44.960;-0.698;2022-07-23T09:21:08;7.18;;;2.85;;
46717;SDS011;32448;44.960;-0.698;2022-07-23T09:23:57;10.80;;;3.05;;
46717;SDS011;32448;44.960;-0.698;2022-07-23T09:26:35;6.32;;;2.85;;
46717;SDS011;32448;44.960;-0.698;2022-07-23T09:29:12;9.73;;;2.80;;
46717;SDS011;32448;44.960;-0.698;2022-07-23T09:31:53;7.07;;;2.63;;
46717;SDS011;32448;44.960;-0.698;2022-07-23T09:34:21;7.50;;;3.13;;
46717;SDS011;32448;44.960;-0.698;2022-07-23T09:37:17;8.55;;;3.30;;
46717;SDS011;32448;44.960;-0.698;2022-07-23T09:39:44;7.85;;;3.60;;
46717;SDS011;32448;44.960;-0.698;2022-07-23T09:42:21;10.93;;;3.63;;
46717;SDS011;32448;44.960;-0.698;2022-07-23T09:44:50;8.82;;;3.97;;
46717;SDS011;32448;44.960;-0.698;2022-07-23T09:47:17;6.72;;;4.22;;
46717;SDS011;32448;44.960;-0.698;2022-07-23T09:50:03;11.02;;;4.22;;
46717;SDS011;32448;44.960;-0.698;2022-07-23T09:52:45;8.13;;;4.50;;
46717;SDS011;32448;44.960;-0.698;2022-07-23T09:55:13;9.77;;;4.35;;
46717;SDS011;32448;44.960;-0.698;2022-07-23T09:57:43;10.70;;;4.35;;
46717;SDS011;32448;44.960;-0.698;2022-07-23T10:00:10;8.93;;;3.88;;
46717;SDS011;32448;44.960;-0.698;2022-07-23T10:02:38;10.88;;;3.92;;
46717;SDS011;32448;44.960;-0.698;2022-07-23T10:05:05;7.13;;;4.40;;
46717;SDS011;32448;44.960;-0.698;2022-07-23T10:07:33;6.95;;;3.83;;
46717;SDS011;32448;44.960;-0.698;2022-07-23T10:10:02;10.80;;;4.22;;
46717;SDS011;32448;44.960;-0.698;2022-07-23T10:12:28;7.50;;;4.32;;
46717;SDS011;32448;44.960;-0.698;2022-07-23T10:15:00;6.57;;;3.97;;
46717;SDS011;32448;44.960;-0.698;2022-07-23T10:17:30;9.65;;;4.38;;
46717;SDS011;32448;44.960;-0.698;2022-07-23T10:19:56;9.70;;;4.63;;
46717;SDS011;32448;44.960;-0.698;2022-07-23T10:22:22;6.95;;;4.15;;
46717;SDS011;32448;44.960;-0.698;2022-07-23T10:36:47;6.95;;;4.20;;
46717;SDS011;32448;44.960;-0.698;2022-07-23T10:39:19;5.40;;;3.63;;
46717;SDS011;32448;44.960;-0.698;2022-07-23T10:41:51;7.40;;;4.43;;
46717;SDS011;32448;44.960;-0.698;2022-07-23T10:44:20;9.40;;;4.25;;
46717;SDS011;32448;44.960;-0.698;2022-07-23T10:46:57;7.95;;;4.22;;
46717;SDS011;32448;44.960;-0.698;2022-07-23T10:49:43;8.48;;;4.63;;
46717;SDS011;32448;44.960;-0.698;2022-07-23T10:52:25;8.30;;;3.97;;
46717;SDS011;32448;44.960;-0.698;2022-07-23T10:57:27;7.63;;;4.25;;
46717;SDS011;32448;44.960;-0.698;2022-07-23T11:02:30;9.98;;;3.90;;
46717;SDS011;32448;44.960;-0.698;2022-07-23T11:10:38;6.95;;;4.05;;
46717;SDS011;32448;44.960;-0.698;2022-07-23T11:21:39;8.13;;;3.85;;
46717;SDS011;32448;44.960;-0.698;2022-07-23T11:23:58;7.60;;;3.90;;
46717;SDS011;32448;44.960;-0.698;2022-07-23T11:39:56;10.40;;;3.80;;
46717;SDS011;32448;44.960;-0.698;2022-07-23T11:42:22;6.45;;;3.83;;
46717;SDS011;32448;44.960;-0.698;2022-07-23T11:44:49;4.70;;;3.85;;
46717;SDS011;32448;44.960;-0.698;2022-07-23T11:47:20;11.35;;;4.53;;
46717;SDS011;32448;44.960;-0.698;2022-07-23T11:49:56;5.22;;;3.88;;
46717;SDS011;32448;44.960;-0.698;2022-07-23T11:52:24;5.47;;;3.60;;
46717;SDS011;32448;44.960;-0.698;2022-07-23T11:57:23;7.15;;;4.00;;
46717;SDS011;32448;44.960;-0.698;2022-07-23T11:59:55;6.97;;;4.07;;
46717;SDS011;32448;44.960;-0.698;2022-07-23T12:02:42;7.40;;;3.88;;
46717;SDS011;32448;44.960;-0.698;2022-07-23T12:05:13;7.97;;;4.35;;
46717;SDS011;32448;44.960;-0.698;2022-07-23T12:07:43;8.50;;;4.45;;
46717;SDS011;32448;44.960;-0.698;2022-07-23T12:10:14;5.30;;;4.10;;
46717;SDS011;32448;44.960;-0.698;2022-07-23T12:12:45;8.98;;;4.10;;
46717;SDS011;32448;44.960;-0.698;2022-07-23T12:15:16;9.10;;;4.40;;
46717;SDS011;32448;44.960;-0.698;2022-07-23T12:17:46;6.53;;;4.00;;
46717;SDS011;32448;44.960;-0.698;2022-07-23T12:20:13;6.22;;;3.70;;
46717;SDS011;32448;44.960;-0.698;2022-07-23T12:22:48;12.98;;;4.30;;
46717;SDS011;32448;44.960;-0.698;2022-07-23T12:25:15;4.95;;;3.90;;
46717;SDS011;32448;44.960;-0.698;2022-07-23T12:27:46;6.25;;;3.95;;
46717;SDS011;32448;44.960;-0.698;2022-07-23T12:30:25;8.77;;;4.05;;
46717;SDS011;32448;44.960;-0.698;2022-07-23T12:32:53;8.23;;;3.95;;
46717;SDS011;32448;44.960;-0.698;2022-07-23T12:35:23;7.45;;;4.10;;
46717;SDS011;32448;44.960;-0.698;2022-07-23T12:37:58;6.80;;;3.88;;
46717;SDS011;32448;44.960;-0.698;2022-07-23T12:40:33;8.70;;;3.85;;
46717;SDS011;32448;44.960;-0.698;2022-07-23T12:43:06;6.82;;;3.65;;
46717;SDS011;32448;44.960;-0.698;2022-07-23T12:45:42;5.55;;;3.60;;
46717;SDS011;32448;44.960;-0.698;2022-07-23T12:48:28;5.53;;;3.78;;
46717;SDS011;32448;44.960;-0.698;2022-07-23T12:51:05;10.27;;;4.03;;
46717;SDS011;32448;44.960;-0.698;2022-07-23T12:53:36;5.88;;;3.80;;
46717;SDS011;32448;44.960;-0.698;2022-07-23T12:58:40;7.68;;;3.83;;
46717;SDS011;32448;44.960;-0.698;2022-07-23T13:01:09;5.85;;;3.75;;
46717;SDS011;32448;44.960;-0.698;2022-07-23T13:04:00;7.45;;;3.83;;
46717;SDS011;32448;44.960;-0.698;2022-07-23T13:06:30;6.43;;;4.10;;
46717;SDS011;32448;44.960;-0.698;2022-07-23T13:08:58;8.38;;;3.60;;
46717;SDS011;32448;44.960;-0.698;2022-07-23T13:11:24;8.68;;;3.90;;
46717;SDS011;32448;44.960;-0.698;2022-07-23T13:13:50;6.93;;;4.40;;
46717;SDS011;32448;44.960;-0.698;2022-07-23T13:16:16;7.45;;;3.97;;
46717;SDS011;32448;44.960;-0.698;2022-07-23T13:18:41;6.22;;;3.90;;
46717;SDS011;32448;44.960;-0.698;2022-07-23T13:21:07;5.20;;;4.03;;
46717;SDS011;32448;44.960;-0.698;2022-07-23T13:23:33;8.07;;;3.97;;
46717;SDS011;32448;44.960;-0.698;2022-07-23T13:25:59;6.40;;;3.45;;
46717;SDS011;32448;44.960;-0.698;2022-07-23T13:28:25;4.90;;;3.78;;
46717;SDS011;32448;44.960;-0.698;2022-07-23T13:30:51;8.73;;;3.88;;
46717;SDS011;32448;44.960;-0.698;2022-07-23T13:33:21;6.57;;;3.58;;
46717;SDS011;32448;44.960;-0.698;2022-07-23T13:35:48;6.72;;;3.70;;
46717;SDS011;32448;44.960;-0.698;2022-07-23T13:38:15;5.28;;;3.53;;
46717;SDS011;32448;44.960;-0.698;2022-07-23T13:40:42;5.65;;;3.50;;
46717;SDS011;32448;44.960;-0.698;2022-07-23T13:43:10;6.50;;;3.65;;
46717;SDS011;32448;44.960;-0.698;2022-07-23T13:45:38;6.32;;;3.40;;
46717;SDS011;32448;44.960;-0.698;2022-07-23T13:48:05;12.27;;;4.32;;
46717;SDS011;32448;44.960;-0.698;2022-07-23T13:50:32;7.78;;;4.45;;
46717;SDS011;32448;44.960;-0.698;2022-07-23T13:53:02;8.63;;;4.28;;
46717;SDS011;32448;44.960;-0.698;2022-07-23T13:55:30;6.75;;;3.80;;
46717;SDS011;32448;44.960;-0.698;2022-07-23T13:57:56;4.93;;;3.25;;
46717;SDS011;32448;44.960;-0.698;2022-07-23T14:00:23;8.30;;;3.75;;
46717;SDS011;32448;44.960;-0.698;2022-07-23T14:02:49;6.00;;;3.95;;
46717;SDS011;32448;44.960;-0.698;2022-07-23T14:05:14;5.72;;;3.55;;
46717;SDS011;32448;44.960;-0.698;2022-07-23T14:07:40;10.15;;;3.50;;
46717;SDS011;32448;44.960;-0.698;2022-07-23T14:10:08;5.07;;;3.20;;
46717;SDS011;32448;44.960;-0.698;2022-07-23T14:12:34;5.88;;;3.67;;
46717;SDS011;32448;44.960;-0.698;2022-07-23T14:15:00;5.53;;;3.63;;
46717;SDS011;32448;44.960;-0.698;2022-07-23T14:17:27;10.50;;;4.07;;
46717;SDS011;32448;44.960;-0.698;2022-07-23T14:19:53;4.13;;;3.40;;
46717;SDS011;32448;44.960;-0.698;2022-07-23T14:22:19;5.50;;;3.55;;
46717;SDS011;32448;44.960;-0.698;2022-07-23T14:24:44;7.78;;;3.90;;
46717;SDS011;32448;44.960;-0.698;2022-07-23T14:27:10;6.07;;;3.53;;
46717;SDS011;32448;44.960;-0.698;2022-07-23T14:29:36;6.57;;;3.58;;
46717;SDS011;32448;44.960;-0.698;2022-07-23T14:32:02;8.43;;;3.50;;
46717;SDS011;32448;44.960;-0.698;2022-07-23T14:34:28;4.65;;;3.30;;
46717;SDS011;32448;44.960;-0.698;2022-07-23T14:36:53;5.32;;;3.67;;
46717;SDS011;32448;44.960;-0.698;2022-07-23T14:39:20;8.15;;;3.47;;
46717;SDS011;32448;44.960;-0.698;2022-07-23T14:41:45;5.82;;;3.65;;
46717;SDS011;32448;44.960;-0.698;2022-07-23T14:44:11;6.78;;;3.80;;
46717;SDS011;32448;44.960;-0.698;2022-07-23T14:46:37;6.65;;;3.67;;
46717;SDS011;32448;44.960;-0.698;2022-07-23T14:49:03;5.55;;;3.65;;
46717;SDS011;32448;44.960;-0.698;2022-07-23T14:51:29;7.85;;;3.83;;
46717;SDS011;32448;44.960;-0.698;2022-07-23T14:53:55;7.75;;;3.58;;
46717;SDS011;32448;44.960;-0.698;2022-07-23T14:56:21;5.47;;;3.60;;
46717;SDS011;32448;44.960;-0.698;2022-07-23T14:58:46;5.47;;;3.90;;
46717;SDS011;32448;44.960;-0.698;2022-07-23T15:01:12;6.97;;;3.65;;
46717;SDS011;32448;44.960;-0.698;2022-07-23T15:03:38;4.55;;;3.08;;
46717;SDS011;32448;44.960;-0.698;2022-07-23T15:06:04;6.63;;;3.58;;
46717;SDS011;32448;44.960;-0.698;2022-07-23T15:08:30;5.15;;;3.38;;
46717;SDS011;32448;44.960;-0.698;2022-07-23T15:10:56;5.05;;;3.00;;
46717;SDS011;32448;44.960;-0.698;2022-07-23T15:13:21;5.00;;;3.65;;
46717;SDS011;32448;44.960;-0.698;2022-07-23T15:15:47;7.32;;;3.35;;
46717;SDS011;32448;44.960;-0.698;2022-07-23T15:18:13;5.20;;;3.67;;
46717;SDS011;32448;44.960;-0.698;2022-07-23T15:20:39;5.78;;;3.83;;
46717;SDS011;32448;44.960;-0.698;2022-07-23T15:23:05;6.82;;;3.78;;
46717;SDS011;32448;44.960;-0.698;2022-07-23T15:25:31;5.72;;;3.63;;
46717;SDS011;32448;44.960;-0.698;2022-07-23T15:27:57;6.20;;;3.35;;
46717;SDS011;32448;44.960;-0.698;2022-07-23T15:30:26;4.47;;;3.33;;
46717;SDS011;32448;44.960;-0.698;2022-07-23T15:32:53;5.40;;;3.45;;
46717;SDS011;32448;44.960;-0.698;2022-07-23T15:35:19;4.53;;;3.30;;
46717;SDS011;32448;44.960;-0.698;2022-07-23T15:37:45;6.78;;;3.38;;
46717;SDS011;32448;44.960;-0.698;2022-07-23T15:40:11;5.47;;;3.67;;
46717;SDS011;32448;44.960;-0.698;2022-07-23T15:42:37;5.68;;;4.07;;
46717;SDS011;32448;44.960;-0.698;2022-07-23T15:45:03;4.90;;;3.55;;
46717;SDS011;32448;44.960;-0.698;2022-07-23T15:47:30;4.78;;;3.35;;
46717;SDS011;32448;44.960;-0.698;2022-07-23T15:49:55;3.80;;;3.35;;
46717;SDS011;32448;44.960;-0.698;2022-07-23T15:52:21;4.50;;;3.13;;
46717;SDS011;32448;44.960;-0.698;2022-07-23T15:54:47;6.50;;;3.25;;
46717;SDS011;32448;44.960;-0.698;2022-07-23T15:57:13;5.10;;;3.88;;